createdAt,value
2022-09-21T00:01:33.361Z,7.35
2022-09-21T00:04:03.715Z,7.33
2022-09-21T00:06:34.200Z,7.27
2022-09-21T00:09:05.417Z,7.22
2022-09-21T00:11:35.629Z,7.18
2022-09-21T00:14:08.201Z,7.13
2022-09-21T00:16:37.005Z,7.09
2022-09-21T00:19:04.917Z,7.02
2022-09-21T00:21:34.535Z,6.93
2022-09-21T00:24:02.980Z,6.84
2022-09-21T00:26:32.183Z,6.80
2022-09-21T00:29:02.862Z,6.79
2022-09-21T00:31:32.671Z,6.81
2022-09-21T00:34:01.284Z,6.81
2022-09-21T00:36:29.384Z,6.83
2022-09-21T00:39:01.654Z,6.86
2022-09-21T00:41:32.756Z,6.84
2022-09-21T00:44:18.845Z,6.90
2022-09-21T00:46:49.826Z,6.93
2022-09-21T00:49:18.617Z,6.97
2022-09-21T00:51:48.272Z,6.99
2022-09-21T00:54:35.704Z,7.00
2022-09-21T00:57:04.145Z,6.99
2022-09-21T00:59:35.803Z,7.01
2022-09-21T01:02:05.024Z,7.04
2022-09-21T01:04:34.523Z,7.07
2022-09-21T01:07:06.046Z,7.08
2022-09-21T01:09:34.841Z,7.09
2022-09-21T01:12:25.258Z,7.08
2022-09-21T01:15:23.185Z,7.09
2022-09-21T01:17:59.715Z,7.11
2022-09-21T01:20:47.210Z,7.15
2022-09-21T01:23:39.253Z,7.16
2022-09-21T01:26:44.329Z,7.18
2022-09-21T01:29:31.488Z,7.19
2022-09-21T01:32:20.856Z,7.22
2022-09-21T01:35:02.532Z,7.27
2022-09-21T01:37:41.573Z,7.31
2022-09-21T01:40:18.164Z,7.35
2022-09-21T01:42:50.086Z,7.37
2022-09-21T01:45:26.685Z,7.39
2022-09-21T01:47:59.665Z,7.39
2022-09-21T01:50:36.670Z,7.42
2022-09-21T01:53:13.729Z,7.44
2022-09-21T01:55:46.502Z,7.46
2022-09-21T01:58:39.248Z,7.50
2022-09-21T02:01:12.008Z,7.53
2022-09-21T02:03:45.278Z,7.56
2022-09-21T02:06:15.124Z,7.57
2022-09-21T02:08:43.814Z,7.56
2022-09-21T02:11:13.643Z,7.58
2022-09-21T02:13:45.957Z,7.57
2022-09-21T02:16:30.102Z,7.59
2022-09-21T02:19:11.022Z,7.63
2022-09-21T02:22:10.310Z,7.64
2022-09-21T02:24:51.205Z,7.67
2022-09-21T02:27:50.146Z,7.66
2022-09-21T02:30:25.742Z,7.65
2022-09-21T02:33:11.957Z,7.66
2022-09-21T02:35:49.982Z,7.66
2022-09-21T02:38:42.989Z,7.66
2022-09-21T02:41:20.221Z,7.65
2022-09-21T02:43:58.834Z,7.65
2022-09-21T02:46:41.003Z,7.66
2022-09-21T02:49:14.161Z,7.67
2022-09-21T02:51:52.032Z,7.66
2022-09-21T02:54:27.040Z,7.68
2022-09-21T02:56:56.832Z,7.69
2022-09-21T02:59:24.710Z,7.69
2022-09-21T03:01:53.101Z,7.69
2022-09-21T03:04:21.538Z,7.70
2022-09-21T03:06:49.347Z,7.71
2022-09-21T03:09:17.344Z,7.70
2022-09-21T03:11:45.190Z,7.71
2022-09-21T03:14:13.149Z,7.70
2022-09-21T03:16:41.004Z,7.72
2022-09-21T03:19:10.321Z,7.73
2022-09-21T03:21:43.699Z,7.71
2022-09-21T03:24:12.255Z,7.72
2022-09-21T03:26:40.133Z,7.69
2022-09-21T03:29:08.707Z,7.70
2022-09-21T03:31:36.558Z,7.70
2022-09-21T03:34:04.450Z,7.68
2022-09-21T03:36:32.298Z,7.69
2022-09-21T03:39:00.275Z,7.70
2022-09-21T03:41:28.302Z,7.70
2022-09-21T03:43:56.167Z,7.71
2022-09-21T03:46:24.852Z,7.72
2022-09-21T03:48:52.838Z,7.71
2022-09-21T03:51:20.690Z,7.71
2022-09-21T03:53:48.678Z,7.73
2022-09-21T03:56:16.472Z,7.70
2022-09-21T03:58:45.040Z,7.70
2022-09-21T04:01:12.958Z,7.66
2022-09-21T04:03:40.828Z,7.61
2022-09-21T04:06:10.183Z,7.61
2022-09-21T04:08:38.841Z,7.58
2022-09-21T04:11:15.077Z,7.55
2022-09-21T04:13:42.982Z,7.56
2022-09-21T04:16:11.502Z,7.54
2022-09-21T04:18:39.433Z,7.53
2022-09-21T04:21:07.289Z,7.50
2022-09-21T04:23:35.806Z,7.46
2022-09-21T04:26:03.657Z,7.46
2022-09-21T04:28:32.743Z,7.43
2022-09-21T04:31:00.698Z,7.42
2022-09-21T04:33:28.590Z,7.39
2022-09-21T04:35:56.641Z,7.38
2022-09-21T04:38:24.483Z,7.36
2022-09-21T04:40:57.332Z,7.32
2022-09-21T04:43:26.268Z,7.29
2022-09-21T04:45:54.169Z,7.31
2022-09-21T04:48:22.015Z,7.32
2022-09-21T04:50:51.040Z,7.34
2022-09-21T04:53:18.964Z,7.34
2022-09-21T04:55:46.777Z,7.34
2022-09-21T04:58:14.788Z,7.37
2022-09-21T05:00:42.584Z,7.42
2022-09-21T05:03:10.395Z,7.47
2022-09-21T05:05:38.248Z,7.47
2022-09-21T05:08:06.058Z,7.45
2022-09-21T05:10:33.925Z,7.42
2022-09-21T05:13:01.787Z,7.42
2022-09-21T05:15:29.694Z,7.41
2022-09-21T05:17:57.629Z,7.42
2022-09-21T05:20:25.498Z,7.44
2022-09-21T05:22:53.796Z,7.45
2022-09-21T05:25:21.640Z,7.47
2022-09-21T05:27:49.572Z,7.48
2022-09-21T05:30:17.895Z,7.47
2022-09-21T05:32:53.252Z,7.47
2022-09-21T05:35:33.092Z,7.48
2022-09-21T05:38:21.311Z,7.48
2022-09-21T05:40:50.330Z,7.45
2022-09-21T05:43:18.461Z,7.46
2022-09-21T05:45:53.099Z,7.46
2022-09-21T05:48:29.100Z,7.49
2022-09-21T05:51:01.539Z,7.50
2022-09-21T05:53:32.471Z,7.53
2022-09-21T05:56:07.263Z,7.56
2022-09-21T05:58:40.962Z,7.58
2022-09-21T06:01:31.163Z,7.56
2022-09-21T06:04:00.188Z,7.55
2022-09-21T06:06:28.058Z,7.57
2022-09-21T06:08:56.014Z,7.61
2022-09-21T06:11:23.953Z,7.64
2022-09-21T06:13:51.979Z,7.67
2022-09-21T06:16:19.864Z,7.67
2022-09-21T06:18:47.758Z,7.66
2022-09-21T06:21:15.591Z,7.67
2022-09-21T06:23:43.418Z,7.70
2022-09-21T06:26:11.287Z,7.74
2022-09-21T06:28:39.112Z,7.79
2022-09-21T06:31:07.012Z,7.81
2022-09-21T06:33:37.851Z,7.87
2022-09-21T06:36:05.989Z,7.91
2022-09-21T06:38:35.643Z,7.88
2022-09-21T06:41:04.857Z,7.88
2022-09-21T06:43:33.303Z,7.93
2022-09-21T06:46:03.201Z,7.98
2022-09-21T06:48:33.650Z,8.02
2022-09-21T06:51:04.127Z,8.05
2022-09-21T06:53:33.999Z,8.06
2022-09-21T06:56:09.094Z,8.09
2022-09-21T06:58:37.950Z,8.12
2022-09-21T07:01:11.752Z,8.13
2022-09-21T07:03:41.110Z,8.18
2022-09-21T07:06:15.725Z,8.20
2022-09-21T07:11:32.711Z,8.16
2022-09-21T07:14:00.549Z,8.12
2022-09-21T07:16:28.507Z,8.13
2022-09-21T07:18:57.043Z,8.13
2022-09-21T07:21:25.585Z,8.14
2022-09-21T07:23:53.530Z,8.15
2022-09-21T07:26:22.835Z,8.18
2022-09-21T07:28:50.649Z,8.18
2022-09-21T07:31:18.551Z,8.18
2022-09-21T07:33:49.405Z,8.21
2022-09-21T07:36:18.013Z,8.26
2022-09-21T07:38:45.954Z,8.28
2022-09-21T07:41:14.797Z,8.32
2022-09-21T07:43:42.697Z,8.35
2022-09-21T07:46:12.719Z,8.38
2022-09-21T07:48:41.256Z,8.43
2022-09-21T07:51:12.297Z,8.45
2022-09-21T07:53:44.102Z,8.48
2022-09-21T07:56:17.622Z,8.53
2022-09-21T07:59:04.491Z,8.57
2022-09-21T08:01:35.519Z,8.61
2022-09-21T08:04:05.355Z,8.66
2022-09-21T08:06:35.511Z,8.68
2022-09-21T08:09:04.164Z,8.69
2022-09-21T08:11:33.363Z,8.69
2022-09-21T08:14:03.745Z,8.69
2022-09-21T08:16:32.510Z,8.68
2022-09-21T08:19:00.437Z,8.67
2022-09-21T08:21:28.608Z,8.67
2022-09-21T08:23:56.545Z,8.67
2022-09-21T08:26:24.859Z,8.66
2022-09-21T08:28:54.949Z,8.70
2022-09-21T08:31:24.531Z,8.73
2022-09-21T08:33:54.971Z,8.76
2022-09-21T08:36:23.193Z,8.77
2022-09-21T08:38:51.094Z,8.83
2022-09-21T08:41:24.709Z,8.92
2022-09-21T08:44:19.239Z,8.96
2022-09-21T08:46:53.353Z,8.96
2022-09-21T08:49:25.534Z,8.96
2022-09-21T08:51:58.610Z,9.00
2022-09-21T08:54:53.262Z,9.01
2022-09-21T08:57:25.245Z,9.02
2022-09-21T08:59:53.193Z,9.02
2022-09-21T09:02:58.767Z,9.00
2022-09-21T09:06:10.538Z,8.94
2022-09-21T09:08:38.264Z,8.90
2022-09-21T09:12:01.503Z,8.90
2022-09-21T09:14:46.894Z,8.86
2022-09-21T09:17:46.746Z,8.83
2022-09-21T09:20:31.476Z,8.80
2022-09-21T09:23:13.870Z,8.81
2022-09-21T09:25:43.265Z,8.79
2022-09-21T09:28:28.987Z,8.81
2022-09-21T09:31:01.262Z,8.83
2022-09-21T09:33:43.421Z,8.86
2022-09-21T09:36:14.272Z,8.89
2022-09-21T09:39:05.944Z,8.93
2022-09-21T09:41:59.087Z,8.90
2022-09-21T09:44:51.955Z,8.92
2022-09-21T09:47:41.587Z,8.96
2022-09-21T09:50:13.473Z,8.99
2022-09-21T09:52:41.515Z,8.98
2022-09-21T09:55:20.990Z,9.02
2022-09-21T09:57:49.852Z,9.09
2022-09-21T10:00:20.334Z,9.18
2022-09-21T10:02:56.842Z,9.25
2022-09-21T10:05:31.548Z,9.33
2022-09-21T10:08:00.504Z,9.40
2022-09-21T10:10:54.154Z,9.41
2022-09-21T10:13:21.983Z,9.40
2022-09-21T10:15:53.987Z,9.47
2022-09-21T10:18:26.724Z,9.58
2022-09-21T10:21:02.002Z,9.69
2022-09-21T10:23:31.551Z,9.78
2022-09-21T10:26:08.639Z,9.80
2022-09-21T10:28:37.451Z,9.93
2022-09-21T10:31:31.802Z,10.03
2022-09-21T10:34:15.229Z,10.13
2022-09-21T10:36:51.901Z,10.18
2022-09-21T10:39:27.062Z,10.19
2022-09-21T10:42:02.409Z,10.19
2022-09-21T10:44:39.368Z,10.19
2022-09-21T10:47:38.460Z,10.18
2022-09-21T10:50:25.776Z,10.22
2022-09-21T10:53:11.616Z,10.23
2022-09-21T10:56:04.717Z,10.18
2022-09-21T10:58:36.375Z,10.19
2022-09-21T11:01:25.906Z,10.13
2022-09-21T11:04:06.655Z,10.06
2022-09-21T11:06:46.701Z,10.04
2022-09-21T11:09:28.267Z,10.01
2022-09-21T11:11:59.859Z,10.01
2022-09-21T11:14:27.592Z,10.06
2022-09-21T11:17:07.750Z,10.17
2022-09-21T11:19:52.575Z,10.28
2022-09-21T11:22:46.742Z,10.38
2022-09-21T11:25:40.868Z,10.47
2022-09-21T11:28:30.375Z,10.53
2022-09-21T11:31:36.229Z,10.63
2022-09-21T11:34:53.743Z,10.74
2022-09-21T11:37:39.516Z,10.93
2022-09-21T11:40:07.325Z,11.38
2022-09-21T11:42:54.122Z,11.68
2022-09-21T11:45:51.608Z,11.99
2022-09-21T11:48:21.971Z,12.23
2022-09-21T11:51:14.066Z,12.12
2022-09-21T11:53:57.965Z,11.96
2022-09-21T11:56:31.667Z,11.80
2022-09-21T11:59:20.357Z,11.81
2022-09-21T12:02:16.175Z,12.14
2022-09-21T12:05:16.496Z,12.28
2022-09-21T12:07:53.603Z,12.11
2022-09-21T12:11:08.109Z,12.00
2022-09-21T12:13:42.229Z,11.92
2022-09-21T12:16:14.178Z,11.84
2022-09-21T12:18:50.361Z,11.68
2022-09-21T12:21:26.836Z,11.55
2022-09-21T12:24:03.226Z,11.46
2022-09-21T12:26:39.246Z,11.44
2022-09-21T12:29:25.846Z,11.44
2022-09-21T12:32:36.000Z,11.59
2022-09-21T12:35:12.882Z,11.99
2022-09-21T12:37:47.608Z,12.45
2022-09-21T12:40:43.453Z,12.66
2022-09-21T12:43:11.797Z,12.83
2022-09-21T12:45:44.332Z,13.04
2022-09-21T12:48:31.913Z,13.20
2022-09-21T12:51:12.240Z,13.56
2022-09-21T12:53:50.371Z,13.75
2022-09-21T12:56:24.396Z,13.77
2022-09-21T12:59:10.867Z,13.81
2022-09-21T13:01:53.384Z,13.81
2022-09-21T13:05:01.067Z,13.62
2022-09-21T13:07:48.026Z,13.36
2022-09-21T13:10:31.645Z,13.39
2022-09-21T13:13:03.819Z,13.63
2022-09-21T13:15:47.497Z,13.88
2022-09-21T13:18:37.162Z,13.94
2022-09-21T13:21:18.664Z,13.62
2022-09-21T13:24:02.901Z,13.38
2022-09-21T13:26:41.632Z,13.34
2022-09-21T13:29:22.219Z,13.48
2022-09-21T13:32:02.130Z,13.54
2022-09-21T13:34:41.505Z,13.36
2022-09-21T13:37:14.051Z,13.11
2022-09-21T13:39:49.953Z,12.92
2022-09-21T13:42:35.578Z,12.80
2022-09-21T13:45:15.590Z,12.72
2022-09-21T13:47:45.913Z,12.61
2022-09-21T13:50:23.398Z,12.90
2022-09-21T13:52:59.351Z,13.42
2022-09-21T13:55:38.894Z,13.95
2022-09-21T13:58:15.977Z,14.14
2022-09-21T14:00:54.140Z,14.08
2022-09-21T14:03:37.474Z,14.02
2022-09-21T14:06:13.587Z,13.76
2022-09-21T14:09:00.203Z,12.73
2022-09-21T14:11:37.549Z,11.63
2022-09-21T14:14:12.211Z,11.01
2022-09-21T14:16:41.982Z,10.65
2022-09-21T14:19:18.787Z,10.26
2022-09-21T14:22:05.057Z,10.01
2022-09-21T14:24:44.904Z,9.79
2022-09-21T14:27:26.202Z,9.67
2022-09-21T14:30:14.753Z,9.62
2022-09-21T14:32:52.175Z,9.56
2022-09-21T14:35:23.717Z,9.69
2022-09-21T14:38:00.581Z,10.07
2022-09-21T14:40:39.223Z,10.82
2022-09-21T14:43:12.451Z,11.40
2022-09-21T14:46:17.285Z,11.88
2022-09-21T14:49:38.047Z,12.60
2022-09-21T14:52:20.006Z,12.55
2022-09-21T14:55:16.869Z,12.29
2022-09-21T14:58:05.454Z,11.95
2022-09-21T15:00:45.309Z,11.73
2022-09-21T15:03:25.435Z,11.61
2022-09-21T15:05:55.797Z,11.41
2022-09-21T15:08:51.596Z,11.28
2022-09-21T15:11:42.604Z,11.44
2022-09-21T15:14:35.122Z,11.44
2022-09-21T15:17:25.910Z,11.54
2022-09-21T15:19:59.542Z,11.56
2022-09-21T15:22:28.086Z,11.55
2022-09-21T15:24:59.258Z,11.63
2022-09-21T15:27:33.647Z,11.63
2022-09-21T15:30:05.462Z,11.62
2022-09-21T15:32:41.536Z,11.61
2022-09-21T15:35:24.602Z,11.60
2022-09-21T15:37:53.865Z,11.52
2022-09-21T15:40:23.363Z,11.47
2022-09-21T15:43:01.160Z,11.38
2022-09-21T15:45:34.075Z,11.29
2022-09-21T15:48:02.545Z,11.17
2022-09-21T15:50:30.977Z,11.02
2022-09-21T15:53:14.936Z,10.87
2022-09-21T15:55:47.871Z,10.61
2022-09-21T15:58:37.308Z,10.43
2022-09-21T16:01:24.017Z,10.25
2022-09-21T16:04:21.328Z,10.16
2022-09-21T16:07:06.759Z,10.08
2022-09-21T16:09:52.803Z,10.03
2022-09-21T16:12:32.884Z,9.99
2022-09-21T16:15:05.862Z,9.99
2022-09-21T16:17:38.482Z,9.99
2022-09-21T16:20:19.979Z,10.00
2022-09-21T16:22:52.471Z,9.97
2022-09-21T16:25:20.435Z,9.93
2022-09-21T16:27:57.419Z,9.94
2022-09-21T16:30:51.337Z,9.96
2022-09-21T16:33:49.191Z,9.98
2022-09-21T16:36:17.042Z,10.02
2022-09-21T16:38:47.202Z,10.03
2022-09-21T16:41:15.092Z,9.98
2022-09-21T16:43:44.764Z,9.92
2022-09-21T16:46:13.745Z,9.86
2022-09-21T16:48:41.676Z,9.84
2022-09-21T16:51:12.837Z,9.84
2022-09-21T16:53:41.439Z,9.80
2022-09-21T16:56:14.690Z,9.70
2022-09-21T16:58:44.263Z,9.56
2022-09-21T17:01:21.054Z,9.46
2022-09-21T17:03:49.207Z,9.40
2022-09-21T17:06:19.747Z,9.34
2022-09-21T17:08:48.934Z,9.31
2022-09-21T17:11:22.967Z,9.30
2022-09-21T17:13:51.455Z,9.25
2022-09-21T17:16:20.589Z,9.18
2022-09-21T17:18:49.663Z,9.15
2022-09-21T17:21:17.581Z,9.12
2022-09-21T17:23:46.295Z,9.09
2022-09-21T17:26:17.925Z,9.08
2022-09-21T17:28:46.153Z,9.06
2022-09-21T17:31:19.062Z,9.02
2022-09-21T17:33:50.433Z,8.98
2022-09-21T17:36:18.677Z,8.94
2022-09-21T17:38:46.913Z,8.90
2022-09-21T17:41:39.151Z,8.86
2022-09-21T17:44:34.417Z,8.77
2022-09-21T17:47:23.635Z,8.66
2022-09-21T17:49:52.346Z,8.56
2022-09-21T17:52:42.526Z,8.51
2022-09-21T17:55:12.997Z,8.45
2022-09-21T17:58:03.777Z,8.40
2022-09-21T18:00:45.256Z,8.32
2022-09-21T18:03:28.819Z,8.23
2022-09-21T18:06:00.892Z,8.17
2022-09-21T18:08:30.937Z,8.15
2022-09-21T18:11:24.823Z,8.13
2022-09-21T18:14:05.885Z,8.04
2022-09-21T18:16:43.026Z,7.97
2022-09-21T18:19:10.922Z,7.92
2022-09-21T18:21:43.749Z,7.87
2022-09-21T18:24:31.069Z,7.85
2022-09-21T18:27:00.938Z,7.87
2022-09-21T18:29:42.035Z,7.85
2022-09-21T18:32:41.549Z,7.79
2022-09-21T18:35:10.691Z,7.64
2022-09-21T18:37:55.282Z,7.49
2022-09-21T18:40:41.246Z,7.41
2022-09-21T18:43:26.513Z,7.36
2022-09-21T18:46:02.008Z,7.19
2022-09-21T18:48:50.546Z,7.07
2022-09-21T18:51:34.021Z,6.91
2022-09-21T18:54:02.671Z,6.75
2022-09-21T18:56:37.165Z,6.65
2022-09-21T18:59:07.339Z,6.57
2022-09-21T19:01:35.701Z,6.51
2022-09-21T19:04:04.355Z,6.50
2022-09-21T19:07:00.889Z,6.50
2022-09-21T19:09:53.211Z,6.49
2022-09-21T19:12:55.433Z,6.54
2022-09-21T19:16:00.754Z,6.53
2022-09-21T19:18:52.993Z,6.57
2022-09-21T19:21:54.018Z,6.66
2022-09-21T19:24:45.494Z,6.72
2022-09-21T19:27:28.376Z,6.76
2022-09-21T19:30:05.299Z,6.77
2022-09-21T19:32:48.161Z,6.76
2022-09-21T19:35:30.245Z,6.80
2022-09-21T19:38:01.741Z,6.87
2022-09-21T19:40:35.258Z,6.92
2022-09-21T19:43:13.624Z,6.94
2022-09-21T19:45:50.744Z,6.96
2022-09-21T19:48:23.043Z,6.93
2022-09-21T19:50:57.268Z,6.92
2022-09-21T19:53:44.611Z,6.97
2022-09-21T19:56:34.784Z,6.98
2022-09-21T19:59:22.251Z,6.91
2022-09-21T20:02:01.378Z,6.86
2022-09-21T20:04:44.561Z,6.87
2022-09-21T20:07:34.245Z,6.94
2022-09-21T20:10:25.263Z,7.01
2022-09-21T20:13:20.869Z,7.05
2022-09-21T20:16:04.064Z,7.09
2022-09-21T20:18:39.652Z,7.12
2022-09-21T20:21:18.947Z,7.17
2022-09-21T20:23:52.016Z,7.23
2022-09-21T20:26:25.944Z,7.28
2022-09-21T20:28:55.251Z,7.34
2022-09-21T20:31:25.770Z,7.40
2022-09-21T20:33:53.695Z,7.42
2022-09-21T20:36:22.008Z,7.40
2022-09-21T20:38:49.848Z,7.41
2022-09-21T20:41:19.196Z,7.40
2022-09-21T20:43:47.019Z,7.47
2022-09-21T20:46:14.877Z,7.51
2022-09-21T20:48:43.646Z,7.56
2022-09-21T20:51:11.591Z,7.59
2022-09-21T20:53:40.510Z,7.59
2022-09-21T20:56:08.426Z,7.59
2022-09-21T20:58:36.406Z,7.59
2022-09-21T21:01:06.766Z,7.62
2022-09-21T21:03:34.774Z,7.67
2022-09-21T21:06:15.076Z,7.73
2022-09-21T21:08:43.336Z,7.79
2022-09-21T21:11:11.429Z,7.83
2022-09-21T21:13:39.288Z,7.85
2022-09-21T21:16:11.908Z,7.87
2022-09-21T21:18:43.250Z,7.90
2022-09-21T21:21:11.743Z,7.96
2022-09-21T21:23:58.641Z,8.00
2022-09-21T21:26:50.292Z,8.04
2022-09-21T21:29:14.465Z,8.05
2022-09-21T21:31:42.376Z,8.07
2022-09-21T21:34:10.371Z,8.10
2022-09-21T21:36:38.326Z,8.13
2022-09-21T21:39:07.323Z,8.13
2022-09-21T21:41:35.448Z,8.16
2022-09-21T21:44:03.448Z,8.14
2022-09-21T21:46:31.395Z,8.13
2022-09-21T21:48:59.325Z,8.11
2022-09-21T21:51:27.301Z,8.13
2022-09-21T21:53:55.143Z,8.15
2022-09-21T21:56:23.483Z,8.16
2022-09-21T21:58:53.615Z,8.18
2022-09-21T22:01:24.764Z,8.18
2022-09-21T22:03:55.066Z,8.18
2022-09-21T22:06:23.763Z,8.15
2022-09-21T22:08:52.593Z,8.12
2022-09-21T22:11:22.399Z,8.11
2022-09-21T22:13:50.859Z,8.07
2022-09-21T22:16:22.268Z,8.10
2022-09-21T22:18:51.687Z,8.08
2022-09-21T22:21:26.283Z,8.09
2022-09-21T22:23:56.672Z,8.10
2022-09-21T22:26:26.183Z,8.12
2022-09-21T22:28:56.672Z,8.12
2022-09-21T22:31:28.340Z,8.11
2022-09-21T22:33:58.650Z,8.09
2022-09-21T22:36:32.467Z,8.08
2022-09-21T22:39:00.781Z,8.08
2022-09-21T22:41:31.311Z,8.04
2022-09-21T22:43:59.556Z,8.02
2022-09-21T22:46:29.650Z,8.01
2022-09-21T22:48:58.181Z,8.00
2022-09-21T22:51:26.543Z,7.96
2022-09-21T22:53:54.389Z,7.93
2022-09-21T22:56:27.561Z,7.92
2022-09-21T22:58:58.126Z,7.91
2022-09-21T23:01:38.085Z,7.90
2022-09-21T23:04:08.796Z,7.89
2022-09-21T23:06:41.420Z,7.84
2022-09-21T23:09:19.755Z,7.78
2022-09-21T23:11:53.280Z,7.73
2022-09-21T23:14:22.479Z,7.70
2022-09-21T23:16:51.676Z,7.64
2022-09-21T23:19:19.669Z,7.59
2022-09-21T23:21:50.272Z,7.57
2022-09-21T23:24:19.455Z,7.54
2022-09-21T23:26:48.403Z,7.48
2022-09-21T23:29:16.730Z,7.44
2022-09-21T23:31:46.034Z,7.44
2022-09-21T23:34:15.366Z,7.43
2022-09-21T23:36:44.942Z,7.43
2022-09-21T23:39:14.719Z,7.43
2022-09-21T23:41:43.840Z,7.42
2022-09-21T23:44:12.156Z,7.38
2022-09-21T23:46:41.337Z,7.32
2022-09-21T23:49:09.611Z,7.29
2022-09-21T23:51:37.555Z,7.25
2022-09-21T23:54:05.686Z,7.21
2022-09-21T23:56:34.277Z,7.20
2022-09-21T23:59:02.836Z,7.19
